sensor_id;sensor_type;location;lat;lon;timestamp;P1;durP1;ratioP1;P2;durP2;ratioP2
32523;SDS011;18965;52.242;20.886;2023-09-19T00:02:30;11.10;;;7.88;;
32523;SDS011;18965;52.242;20.886;2023-09-19T00:05:13;13.15;;;8.18;;
32523;SDS011;18965;52.242;20.886;2023-09-19T00:07:55;10.05;;;7.80;;
32523;SDS011;18965;52.242;20.886;2023-09-19T00:10:40;12.63;;;8.63;;
32523;SDS011;18965;52.242;20.886;2023-09-19T00:13:21;12.88;;;8.55;;
32523;SDS011;18965;52.242;20.886;2023-09-19T00:16:25;10.82;;;8.50;;
32523;SDS011;18965;52.242;20.886;2023-09-19T00:27:53;13.60;;;8.20;;
32523;SDS011;18965;52.242;20.886;2023-09-19T00:30:26;11.07;;;8.48;;
32523;SDS011;18965;52.242;20.886;2023-09-19T00:36:28;11.50;;;8.65;;
32523;SDS011;18965;52.242;20.886;2023-09-19T00:50:25;11.20;;;8.43;;
32523;SDS011;18965;52.242;20.886;2023-09-19T01:03:41;9.23;;;7.78;;
32523;SDS011;18965;52.242;20.886;2023-09-19T01:06:07;12.23;;;8.63;;
32523;SDS011;18965;52.242;20.886;2023-09-19T01:12:22;12.70;;;9.10;;
32523;SDS011;18965;52.242;20.886;2023-09-19T01:18:47;11.68;;;8.40;;
32523;SDS011;18965;52.242;20.886;2023-09-19T01:31:45;12.20;;;8.90;;
32523;SDS011;18965;52.242;20.886;2023-09-19T01:37:24;15.32;;;9.52;;
32523;SDS011;18965;52.242;20.886;2023-09-19T01:40:07;16.77;;;9.10;;
32523;SDS011;18965;52.242;20.886;2023-09-19T01:42:59;10.65;;;8.32;;
32523;SDS011;18965;52.242;20.886;2023-09-19T01:51:40;12.38;;;8.60;;
32523;SDS011;18965;52.242;20.886;2023-09-19T01:54:30;14.65;;;8.55;;
32523;SDS011;18965;52.242;20.886;2023-09-19T01:57:48;13.90;;;8.70;;
32523;SDS011;18965;52.242;20.886;2023-09-19T02:00:55;15.30;;;8.88;;
32523;SDS011;18965;52.242;20.886;2023-09-19T02:03:26;14.02;;;9.20;;
32523;SDS011;18965;52.242;20.886;2023-09-19T02:06:32;11.98;;;8.95;;
32523;SDS011;18965;52.242;20.886;2023-09-19T02:12:13;13.23;;;8.93;;
32523;SDS011;18965;52.242;20.886;2023-09-19T02:20:44;15.57;;;9.30;;
32523;SDS011;18965;52.242;20.886;2023-09-19T02:23:39;12.88;;;9.40;;
32523;SDS011;18965;52.242;20.886;2023-09-19T02:42:16;12.02;;;8.73;;
32523;SDS011;18965;52.242;20.886;2023-09-19T02:45:41;12.82;;;8.90;;
32523;SDS011;18965;52.242;20.886;2023-09-19T02:48:46;14.00;;;8.70;;
32523;SDS011;18965;52.242;20.886;2023-09-19T02:51:44;13.13;;;9.30;;
32523;SDS011;18965;52.242;20.886;2023-09-19T02:59:27;10.90;;;9.02;;
32523;SDS011;18965;52.242;20.886;2023-09-19T03:02:02;12.50;;;8.90;;
32523;SDS011;18965;52.242;20.886;2023-09-19T03:08:22;15.40;;;9.38;;
32523;SDS011;18965;52.242;20.886;2023-09-19T03:22:25;17.55;;;8.90;;
32523;SDS011;18965;52.242;20.886;2023-09-19T03:28:06;17.05;;;8.77;;
32523;SDS011;18965;52.242;20.886;2023-09-19T03:35:53;13.38;;;9.13;;
32523;SDS011;18965;52.242;20.886;2023-09-19T03:41:18;15.55;;;9.13;;
32523;SDS011;18965;52.242;20.886;2023-09-19T03:50:16;14.07;;;9.25;;
32523;SDS011;18965;52.242;20.886;2023-09-19T03:53:00;18.77;;;9.40;;
32523;SDS011;18965;52.242;20.886;2023-09-19T03:58:23;13.45;;;9.05;;
32523;SDS011;18965;52.242;20.886;2023-09-19T04:04:28;12.43;;;8.65;;
32523;SDS011;18965;52.242;20.886;2023-09-19T04:07:26;14.98;;;8.80;;
32523;SDS011;18965;52.242;20.886;2023-09-19T04:13:42;11.52;;;8.55;;
32523;SDS011;18965;52.242;20.886;2023-09-19T04:16:11;14.30;;;9.35;;
32523;SDS011;18965;52.242;20.886;2023-09-19T04:22:01;14.48;;;8.90;;
32523;SDS011;18965;52.242;20.886;2023-09-19T04:24:37;17.13;;;9.10;;
32523;SDS011;18965;52.242;20.886;2023-09-19T04:27:13;13.98;;;9.23;;
32523;SDS011;18965;52.242;20.886;2023-09-19T04:56:36;15.40;;;10.13;;
32523;SDS011;18965;52.242;20.886;2023-09-19T05:02:05;15.98;;;9.00;;
32523;SDS011;18965;52.242;20.886;2023-09-19T05:05:14;13.30;;;8.65;;
32523;SDS011;18965;52.242;20.886;2023-09-19T05:08:02;13.60;;;8.98;;
32523;SDS011;18965;52.242;20.886;2023-09-19T05:10:58;11.18;;;8.60;;
32523;SDS011;18965;52.242;20.886;2023-09-19T05:13:39;13.45;;;8.63;;
32523;SDS011;18965;52.242;20.886;2023-09-19T05:16:13;14.68;;;8.75;;
32523;SDS011;18965;52.242;20.886;2023-09-19T05:19:03;14.55;;;8.18;;
32523;SDS011;18965;52.242;20.886;2023-09-19T05:21:32;13.03;;;7.97;;
32523;SDS011;18965;52.242;20.886;2023-09-19T05:24:05;17.08;;;9.40;;
32523;SDS011;18965;52.242;20.886;2023-09-19T05:26:37;11.18;;;8.90;;
32523;SDS011;18965;52.242;20.886;2023-09-19T05:29:28;14.60;;;8.80;;
32523;SDS011;18965;52.242;20.886;2023-09-19T05:32:10;12.57;;;8.60;;
32523;SDS011;18965;52.242;20.886;2023-09-19T05:34:37;15.75;;;9.00;;
32523;SDS011;18965;52.242;20.886;2023-09-19T05:37:07;12.50;;;9.38;;
32523;SDS011;18965;52.242;20.886;2023-09-19T05:39:51;12.50;;;8.45;;
32523;SDS011;18965;52.242;20.886;2023-09-19T05:42:53;18.08;;;9.23;;
32523;SDS011;18965;52.242;20.886;2023-09-19T05:45:33;18.30;;;9.00;;
32523;SDS011;18965;52.242;20.886;2023-09-19T05:48:06;11.75;;;9.00;;
32523;SDS011;18965;52.242;20.886;2023-09-19T05:50:45;14.73;;;8.93;;
32523;SDS011;18965;52.242;20.886;2023-09-19T05:53:59;18.95;;;8.93;;
32523;SDS011;18965;52.242;20.886;2023-09-19T06:02:57;15.45;;;8.55;;
32523;SDS011;18965;52.242;20.886;2023-09-19T06:08:42;17.58;;;9.30;;
32523;SDS011;18965;52.242;20.886;2023-09-19T06:14:25;14.20;;;8.18;;
32523;SDS011;18965;52.242;20.886;2023-09-19T06:23:33;11.45;;;8.90;;
32523;SDS011;18965;52.242;20.886;2023-09-19T06:26:38;12.57;;;8.32;;
32523;SDS011;18965;52.242;20.886;2023-09-19T06:29:23;15.53;;;8.73;;
32523;SDS011;18965;52.242;20.886;2023-09-19T06:35:39;15.25;;;9.65;;
32523;SDS011;18965;52.242;20.886;2023-09-19T06:38:19;12.77;;;7.68;;
32523;SDS011;18965;52.242;20.886;2023-09-19T06:40:44;17.52;;;9.23;;
32523;SDS011;18965;52.242;20.886;2023-09-19T06:46:14;12.82;;;8.50;;
32523;SDS011;18965;52.242;20.886;2023-09-19T06:48:40;18.15;;;9.48;;
32523;SDS011;18965;52.242;20.886;2023-09-19T06:51:22;16.42;;;9.55;;
32523;SDS011;18965;52.242;20.886;2023-09-19T06:54:35;12.77;;;8.82;;
32523;SDS011;18965;52.242;20.886;2023-09-19T06:57:16;10.43;;;8.23;;
32523;SDS011;18965;52.242;20.886;2023-09-19T06:59:51;16.50;;;8.65;;
32523;SDS011;18965;52.242;20.886;2023-09-19T07:02:19;10.63;;;7.85;;
32523;SDS011;18965;52.242;20.886;2023-09-19T07:04:50;15.73;;;8.43;;
32523;SDS011;18965;52.242;20.886;2023-09-19T07:07:16;13.65;;;8.52;;
32523;SDS011;18965;52.242;20.886;2023-09-19T07:09:43;14.20;;;8.50;;
32523;SDS011;18965;52.242;20.886;2023-09-19T07:12:21;11.60;;;8.90;;
32523;SDS011;18965;52.242;20.886;2023-09-19T07:14:56;18.13;;;9.30;;
32523;SDS011;18965;52.242;20.886;2023-09-19T07:17:31;12.98;;;8.43;;
32523;SDS011;18965;52.242;20.886;2023-09-19T07:19:58;16.73;;;9.20;;
32523;SDS011;18965;52.242;20.886;2023-09-19T07:22:43;14.43;;;8.85;;
32523;SDS011;18965;52.242;20.886;2023-09-19T07:25:16;13.07;;;9.57;;
32523;SDS011;18965;52.242;20.886;2023-09-19T07:28:06;11.20;;;8.77;;
32523;SDS011;18965;52.242;20.886;2023-09-19T07:30:49;14.07;;;10.15;;
32523;SDS011;18965;52.242;20.886;2023-09-19T07:33:57;15.40;;;9.88;;
32523;SDS011;18965;52.242;20.886;2023-09-19T07:36:26;12.35;;;10.00;;
32523;SDS011;18965;52.242;20.886;2023-09-19T07:38:54;13.20;;;10.10;;
32523;SDS011;18965;52.242;20.886;2023-09-19T07:41:23;12.85;;;9.50;;
32523;SDS011;18965;52.242;20.886;2023-09-19T07:43:52;13.23;;;9.93;;
32523;SDS011;18965;52.242;20.886;2023-09-19T07:46:23;14.20;;;10.35;;
32523;SDS011;18965;52.242;20.886;2023-09-19T07:48:52;15.13;;;10.77;;
32523;SDS011;18965;52.242;20.886;2023-09-19T07:54:25;14.80;;;9.98;;
32523;SDS011;18965;52.242;20.886;2023-09-19T07:56:56;19.48;;;10.63;;
32523;SDS011;18965;52.242;20.886;2023-09-19T07:59:40;14.63;;;10.63;;
32523;SDS011;18965;52.242;20.886;2023-09-19T08:02:16;12.65;;;10.02;;
32523;SDS011;18965;52.242;20.886;2023-09-19T08:05:10;11.95;;;10.15;;
32523;SDS011;18965;52.242;20.886;2023-09-19T08:15:10;14.10;;;9.48;;
32523;SDS011;18965;52.242;20.886;2023-09-19T08:21:15;12.65;;;8.48;;
32523;SDS011;18965;52.242;20.886;2023-09-19T08:24:15;14.40;;;8.70;;
32523;SDS011;18965;52.242;20.886;2023-09-19T08:26:42;13.63;;;8.93;;
32523;SDS011;18965;52.242;20.886;2023-09-19T08:29:13;11.90;;;8.63;;
32523;SDS011;18965;52.242;20.886;2023-09-19T08:31:39;14.45;;;8.18;;
32523;SDS011;18965;52.242;20.886;2023-09-19T08:34:05;11.73;;;8.10;;
32523;SDS011;18965;52.242;20.886;2023-09-19T08:36:36;10.27;;;8.10;;
32523;SDS011;18965;52.242;20.886;2023-09-19T08:39:03;11.05;;;8.27;;
32523;SDS011;18965;52.242;20.886;2023-09-19T08:41:29;14.35;;;8.93;;
32523;SDS011;18965;52.242;20.886;2023-09-19T08:43:58;13.27;;;9.10;;
32523;SDS011;18965;52.242;20.886;2023-09-19T08:46:26;13.65;;;8.82;;
32523;SDS011;18965;52.242;20.886;2023-09-19T08:49:08;10.35;;;8.25;;
32523;SDS011;18965;52.242;20.886;2023-09-19T08:51:58;10.45;;;8.50;;
32523;SDS011;18965;52.242;20.886;2023-09-19T08:54:56;11.27;;;9.00;;
32523;SDS011;18965;52.242;20.886;2023-09-19T08:57:29;12.80;;;8.23;;
32523;SDS011;18965;52.242;20.886;2023-09-19T09:00:05;14.15;;;8.68;;
32523;SDS011;18965;52.242;20.886;2023-09-19T09:02:39;12.05;;;8.38;;
32523;SDS011;18965;52.242;20.886;2023-09-19T09:05:08;14.27;;;7.90;;
32523;SDS011;18965;52.242;20.886;2023-09-19T09:07:39;13.32;;;8.23;;
32523;SDS011;18965;52.242;20.886;2023-09-19T09:10:09;14.15;;;8.77;;
32523;SDS011;18965;52.242;20.886;2023-09-19T09:12:35;19.15;;;8.98;;
32523;SDS011;18965;52.242;20.886;2023-09-19T09:15:06;13.75;;;7.88;;
32523;SDS011;18965;52.242;20.886;2023-09-19T09:17:34;13.32;;;8.13;;
32523;SDS011;18965;52.242;20.886;2023-09-19T09:19:59;14.50;;;8.93;;
32523;SDS011;18965;52.242;20.886;2023-09-19T09:22:25;15.23;;;8.85;;
32523;SDS011;18965;52.242;20.886;2023-09-19T09:24:54;15.25;;;8.90;;
32523;SDS011;18965;52.242;20.886;2023-09-19T09:27:28;16.95;;;8.65;;
32523;SDS011;18965;52.242;20.886;2023-09-19T09:29:57;18.05;;;9.65;;
32523;SDS011;18965;52.242;20.886;2023-09-19T09:32:32;22.75;;;9.68;;
32523;SDS011;18965;52.242;20.886;2023-09-19T09:35:00;20.23;;;8.40;;
32523;SDS011;18965;52.242;20.886;2023-09-19T09:37:34;16.08;;;8.30;;
32523;SDS011;18965;52.242;20.886;2023-09-19T09:46:21;10.50;;;6.82;;
32523;SDS011;18965;52.242;20.886;2023-09-19T09:49:35;10.75;;;5.57;;
32523;SDS011;18965;52.242;20.886;2023-09-19T09:52:22;8.93;;;5.30;;
32523;SDS011;18965;52.242;20.886;2023-09-19T09:59:02;7.95;;;5.00;;
32523;SDS011;18965;52.242;20.886;2023-09-19T10:02:58;6.50;;;4.30;;
32523;SDS011;18965;52.242;20.886;2023-09-19T10:06:23;7.60;;;4.78;;
32523;SDS011;18965;52.242;20.886;2023-09-19T10:09:19;5.55;;;4.43;;
32523;SDS011;18965;52.242;20.886;2023-09-19T10:12:45;7.47;;;4.53;;
32523;SDS011;18965;52.242;20.886;2023-09-19T10:15:47;6.45;;;4.55;;
32523;SDS011;18965;52.242;20.886;2023-09-19T10:18:19;7.22;;;4.65;;
32523;SDS011;18965;52.242;20.886;2023-09-19T10:20:56;6.45;;;4.32;;
32523;SDS011;18965;52.242;20.886;2023-09-19T10:23:37;8.23;;;4.03;;
32523;SDS011;18965;52.242;20.886;2023-09-19T10:26:05;5.70;;;4.00;;
32523;SDS011;18965;52.242;20.886;2023-09-19T10:28:43;7.65;;;4.40;;
32523;SDS011;18965;52.242;20.886;2023-09-19T10:31:36;6.80;;;4.05;;
32523;SDS011;18965;52.242;20.886;2023-09-19T10:34:37;5.80;;;3.90;;
32523;SDS011;18965;52.242;20.886;2023-09-19T10:37:19;4.47;;;4.07;;
32523;SDS011;18965;52.242;20.886;2023-09-19T10:40:14;4.68;;;3.67;;
32523;SDS011;18965;52.242;20.886;2023-09-19T10:43:32;3.58;;;3.28;;
32523;SDS011;18965;52.242;20.886;2023-09-19T10:46:13;7.35;;;3.60;;
32523;SDS011;18965;52.242;20.886;2023-09-19T10:56:01;5.25;;;3.50;;
32523;SDS011;18965;52.242;20.886;2023-09-19T11:06:01;5.75;;;4.30;;
32523;SDS011;18965;52.242;20.886;2023-09-19T11:29:29;5.93;;;3.90;;
32523;SDS011;18965;52.242;20.886;2023-09-19T11:36:15;4.28;;;3.83;;
32523;SDS011;18965;52.242;20.886;2023-09-19T11:39:25;4.53;;;3.70;;
32523;SDS011;18965;52.242;20.886;2023-09-19T11:42:50;5.78;;;4.40;;
32523;SDS011;18965;52.242;20.886;2023-09-19T11:48:42;8.10;;;4.47;;
32523;SDS011;18965;52.242;20.886;2023-09-19T11:53:49;8.15;;;4.57;;
32523;SDS011;18965;52.242;20.886;2023-09-19T11:56:33;7.47;;;4.35;;
32523;SDS011;18965;52.242;20.886;2023-09-19T11:59:07;6.43;;;4.40;;
32523;SDS011;18965;52.242;20.886;2023-09-19T12:01:56;5.03;;;4.03;;
32523;SDS011;18965;52.242;20.886;2023-09-19T12:04:44;9.23;;;4.90;;
32523;SDS011;18965;52.242;20.886;2023-09-19T12:07:26;8.10;;;4.18;;
32523;SDS011;18965;52.242;20.886;2023-09-19T12:10:03;6.82;;;3.97;;
32523;SDS011;18965;52.242;20.886;2023-09-19T12:12:30;6.18;;;4.25;;
32523;SDS011;18965;52.242;20.886;2023-09-19T12:15:35;5.15;;;4.03;;
32523;SDS011;18965;52.242;20.886;2023-09-19T12:21:38;6.90;;;4.18;;
32523;SDS011;18965;52.242;20.886;2023-09-19T12:24:34;7.95;;;4.38;;
32523;SDS011;18965;52.242;20.886;2023-09-19T12:27:24;5.53;;;4.43;;
32523;SDS011;18965;52.242;20.886;2023-09-19T12:29:55;4.72;;;4.18;;
32523;SDS011;18965;52.242;20.886;2023-09-19T12:32:54;7.05;;;4.28;;
32523;SDS011;18965;52.242;20.886;2023-09-19T12:38:59;9.13;;;4.88;;
32523;SDS011;18965;52.242;20.886;2023-09-19T12:41:34;8.32;;;4.53;;
32523;SDS011;18965;52.242;20.886;2023-09-19T12:44:30;7.22;;;4.55;;
32523;SDS011;18965;52.242;20.886;2023-09-19T12:47:11;7.65;;;5.00;;
32523;SDS011;18965;52.242;20.886;2023-09-19T12:52:46;7.25;;;4.50;;
32523;SDS011;18965;52.242;20.886;2023-09-19T12:55:30;8.52;;;4.80;;
32523;SDS011;18965;52.242;20.886;2023-09-19T13:00:55;7.25;;;4.55;;
32523;SDS011;18965;52.242;20.886;2023-09-19T13:06:13;8.07;;;4.85;;
32523;SDS011;18965;52.242;20.886;2023-09-19T13:09:04;7.32;;;4.80;;
32523;SDS011;18965;52.242;20.886;2023-09-19T13:12:03;7.78;;;5.22;;
32523;SDS011;18965;52.242;20.886;2023-09-19T13:14:34;7.70;;;5.15;;
32523;SDS011;18965;52.242;20.886;2023-09-19T13:17:06;6.50;;;4.75;;
32523;SDS011;18965;52.242;20.886;2023-09-19T13:19:44;6.93;;;4.85;;
32523;SDS011;18965;52.242;20.886;2023-09-19T13:25:18;9.02;;;5.28;;
32523;SDS011;18965;52.242;20.886;2023-09-19T13:27:46;9.23;;;5.03;;
32523;SDS011;18965;52.242;20.886;2023-09-19T13:30:16;8.38;;;5.40;;
32523;SDS011;18965;52.242;20.886;2023-09-19T13:32:43;11.23;;;5.22;;
32523;SDS011;18965;52.242;20.886;2023-09-19T13:35:12;8.82;;;4.88;;
32523;SDS011;18965;52.242;20.886;2023-09-19T13:37:39;9.15;;;5.18;;
32523;SDS011;18965;52.242;20.886;2023-09-19T13:40:13;9.98;;;5.25;;
32523;SDS011;18965;52.242;20.886;2023-09-19T13:42:40;10.60;;;5.25;;
32523;SDS011;18965;52.242;20.886;2023-09-19T13:45:06;8.75;;;5.78;;
32523;SDS011;18965;52.242;20.886;2023-09-19T13:47:46;10.85;;;5.93;;
32523;SDS011;18965;52.242;20.886;2023-09-19T13:50:12;8.52;;;5.93;;
32523;SDS011;18965;52.242;20.886;2023-09-19T13:52:37;10.27;;;5.90;;
32523;SDS011;18965;52.242;20.886;2023-09-19T13:55:03;11.93;;;5.47;;
32523;SDS011;18965;52.242;20.886;2023-09-19T13:57:31;10.80;;;6.18;;
32523;SDS011;18965;52.242;20.886;2023-09-19T13:59:58;9.40;;;5.85;;
32523;SDS011;18965;52.242;20.886;2023-09-19T14:02:24;10.38;;;5.63;;
32523;SDS011;18965;52.242;20.886;2023-09-19T14:04:50;12.30;;;5.30;;
32523;SDS011;18965;52.242;20.886;2023-09-19T14:07:19;14.10;;;6.28;;
32523;SDS011;18965;52.242;20.886;2023-09-19T14:09:46;8.82;;;5.38;;
32523;SDS011;18965;52.242;20.886;2023-09-19T14:12:15;8.80;;;4.70;;
32523;SDS011;18965;52.242;20.886;2023-09-19T14:14:40;8.15;;;3.95;;
32523;SDS011;18965;52.242;20.886;2023-09-19T14:17:07;5.68;;;3.50;;
32523;SDS011;18965;52.242;20.886;2023-09-19T14:19:34;9.77;;;3.95;;
32523;SDS011;18965;52.242;20.886;2023-09-19T14:22:01;7.30;;;3.67;;
32523;SDS011;18965;52.242;20.886;2023-09-19T14:24:32;5.28;;;3.88;;
32523;SDS011;18965;52.242;20.886;2023-09-19T14:26:58;4.72;;;3.33;;
32523;SDS011;18965;52.242;20.886;2023-09-19T14:29:24;4.85;;;3.38;;
32523;SDS011;18965;52.242;20.886;2023-09-19T14:31:52;8.63;;;3.60;;
32523;SDS011;18965;52.242;20.886;2023-09-19T14:34:19;4.63;;;3.53;;
32523;SDS011;18965;52.242;20.886;2023-09-19T14:36:45;10.05;;;3.42;;
32523;SDS011;18965;52.242;20.886;2023-09-19T14:39:11;9.43;;;3.65;;
32523;SDS011;18965;52.242;20.886;2023-09-19T14:41:37;8.70;;;3.53;;
32523;SDS011;18965;52.242;20.886;2023-09-19T14:44:03;6.53;;;3.15;;
32523;SDS011;18965;52.242;20.886;2023-09-19T14:46:30;6.47;;;3.42;;
32523;SDS011;18965;52.242;20.886;2023-09-19T14:48:56;5.55;;;3.45;;
32523;SDS011;18965;52.242;20.886;2023-09-19T14:51:32;6.18;;;3.25;;
32523;SDS011;18965;52.242;20.886;2023-09-19T14:54:01;4.78;;;2.85;;
32523;SDS011;18965;52.242;20.886;2023-09-19T14:56:29;3.95;;;3.13;;
32523;SDS011;18965;52.242;20.886;2023-09-19T14:58:56;6.43;;;2.90;;
32523;SDS011;18965;52.242;20.886;2023-09-19T15:01:24;8.13;;;3.25;;
32523;SDS011;18965;52.242;20.886;2023-09-19T15:03:50;5.95;;;3.53;;
32523;SDS011;18965;52.242;20.886;2023-09-19T15:06:16;5.50;;;3.47;;
32523;SDS011;18965;52.242;20.886;2023-09-19T15:08:44;5.00;;;3.65;;
32523;SDS011;18965;52.242;20.886;2023-09-19T15:11:15;5.72;;;3.35;;
32523;SDS011;18965;52.242;20.886;2023-09-19T15:13:42;4.45;;;3.40;;
32523;SDS011;18965;52.242;20.886;2023-09-19T15:16:09;6.10;;;3.60;;
32523;SDS011;18965;52.242;20.886;2023-09-19T15:18:39;6.32;;;3.80;;
32523;SDS011;18965;52.242;20.886;2023-09-19T15:21:06;4.70;;;3.42;;
32523;SDS011;18965;52.242;20.886;2023-09-19T15:23:34;4.55;;;3.55;;
32523;SDS011;18965;52.242;20.886;2023-09-19T15:26:02;3.53;;;3.20;;
32523;SDS011;18965;52.242;20.886;2023-09-19T15:28:31;7.78;;;4.20;;
32523;SDS011;18965;52.242;20.886;2023-09-19T15:31:04;5.50;;;3.72;;
32523;SDS011;18965;52.242;20.886;2023-09-19T15:33:35;6.20;;;3.70;;
32523;SDS011;18965;52.242;20.886;2023-09-19T15:36:09;7.22;;;3.55;;
32523;SDS011;18965;52.242;20.886;2023-09-19T15:41:34;5.80;;;3.65;;
32523;SDS011;18965;52.242;20.886;2023-09-19T15:44:19;7.17;;;3.57;;
32523;SDS011;18965;52.242;20.886;2023-09-19T15:46:46;5.63;;;3.78;;
32523;SDS011;18965;52.242;20.886;2023-09-19T15:49:13;7.30;;;3.35;;
32523;SDS011;18965;52.242;20.886;2023-09-19T15:51:45;6.38;;;3.50;;
32523;SDS011;18965;52.242;20.886;2023-09-19T15:54:14;6.88;;;3.35;;
32523;SDS011;18965;52.242;20.886;2023-09-19T15:56:44;4.30;;;3.10;;
32523;SDS011;18965;52.242;20.886;2023-09-19T15:59:11;5.72;;;3.50;;
32523;SDS011;18965;52.242;20.886;2023-09-19T16:01:41;4.57;;;3.20;;
32523;SDS011;18965;52.242;20.886;2023-09-19T16:04:08;8.05;;;3.30;;
32523;SDS011;18965;52.242;20.886;2023-09-19T16:06:34;8.20;;;3.78;;
32523;SDS011;18965;52.242;20.886;2023-09-19T16:09:01;6.25;;;3.25;;
32523;SDS011;18965;52.242;20.886;2023-09-19T16:11:29;6.28;;;3.13;;
32523;SDS011;18965;52.242;20.886;2023-09-19T16:13:57;4.90;;;2.63;;
32523;SDS011;18965;52.242;20.886;2023-09-19T16:16:23;3.95;;;3.50;;
32523;SDS011;18965;52.242;20.886;2023-09-19T16:18:53;4.45;;;2.95;;
32523;SDS011;18965;52.242;20.886;2023-09-19T16:21:30;5.53;;;3.13;;
32523;SDS011;18965;52.242;20.886;2023-09-19T16:23:59;4.43;;;2.90;;
32523;SDS011;18965;52.242;20.886;2023-09-19T16:26:27;8.23;;;2.90;;
32523;SDS011;18965;52.242;20.886;2023-09-19T16:28:57;6.53;;;3.33;;
32523;SDS011;18965;52.242;20.886;2023-09-19T16:31:27;6.55;;;2.38;;
32523;SDS011;18965;52.242;20.886;2023-09-19T16:33:53;5.85;;;2.70;;
32523;SDS011;18965;52.242;20.886;2023-09-19T16:36:20;4.28;;;2.83;;
32523;SDS011;18965;52.242;20.886;2023-09-19T16:38:49;5.45;;;2.80;;
32523;SDS011;18965;52.242;20.886;2023-09-19T16:41:16;6.70;;;3.15;;
32523;SDS011;18965;52.242;20.886;2023-09-19T16:43:43;5.57;;;3.10;;
32523;SDS011;18965;52.242;20.886;2023-09-19T16:46:10;7.43;;;3.42;;
32523;SDS011;18965;52.242;20.886;2023-09-19T16:48:40;4.05;;;3.03;;
32523;SDS011;18965;52.242;20.886;2023-09-19T16:51:08;5.95;;;3.28;;
32523;SDS011;18965;52.242;20.886;2023-09-19T16:53:35;5.60;;;3.05;;
32523;SDS011;18965;52.242;20.886;2023-09-19T16:56:06;8.55;;;3.70;;
32523;SDS011;18965;52.242;20.886;2023-09-19T16:58:35;4.50;;;3.17;;
32523;SDS011;18965;52.242;20.886;2023-09-19T17:01:02;7.90;;;3.97;;
32523;SDS011;18965;52.242;20.886;2023-09-19T17:03:28;6.00;;;3.92;;
32523;SDS011;18965;52.242;20.886;2023-09-19T17:05:59;6.68;;;3.40;;
32523;SDS011;18965;52.242;20.886;2023-09-19T17:08:27;7.30;;;3.70;;
32523;SDS011;18965;52.242;20.886;2023-09-19T17:11:06;6.57;;;3.10;;
32523;SDS011;18965;52.242;20.886;2023-09-19T17:13:36;7.97;;;3.63;;
32523;SDS011;18965;52.242;20.886;2023-09-19T17:16:06;5.35;;;3.28;;
32523;SDS011;18965;52.242;20.886;2023-09-19T17:18:36;6.35;;;3.35;;
32523;SDS011;18965;52.242;20.886;2023-09-19T17:21:03;5.07;;;3.05;;
32523;SDS011;18965;52.242;20.886;2023-09-19T17:23:35;5.70;;;3.17;;
32523;SDS011;18965;52.242;20.886;2023-09-19T17:28:46;6.15;;;3.05;;
32523;SDS011;18965;52.242;20.886;2023-09-19T17:31:16;4.32;;;3.30;;
32523;SDS011;18965;52.242;20.886;2023-09-19T17:33:44;4.87;;;2.93;;
32523;SDS011;18965;52.242;20.886;2023-09-19T17:36:16;6.07;;;3.53;;
32523;SDS011;18965;52.242;20.886;2023-09-19T17:38:47;6.15;;;3.28;;
32523;SDS011;18965;52.242;20.886;2023-09-19T17:41:14;6.90;;;3.42;;
32523;SDS011;18965;52.242;20.886;2023-09-19T17:43:41;6.28;;;3.60;;
32523;SDS011;18965;52.242;20.886;2023-09-19T17:46:12;4.78;;;3.35;;
32523;SDS011;18965;52.242;20.886;2023-09-19T17:48:43;5.85;;;3.53;;
32523;SDS011;18965;52.242;20.886;2023-09-19T17:51:11;6.07;;;3.67;;
32523;SDS011;18965;52.242;20.886;2023-09-19T17:53:39;4.72;;;2.95;;
32523;SDS011;18965;52.242;20.886;2023-09-19T17:56:17;4.93;;;3.22;;
32523;SDS011;18965;52.242;20.886;2023-09-19T17:58:45;5.57;;;3.13;;
32523;SDS011;18965;52.242;20.886;2023-09-19T18:01:17;5.10;;;3.17;;
32523;SDS011;18965;52.242;20.886;2023-09-19T18:03:47;6.35;;;2.92;;
32523;SDS011;18965;52.242;20.886;2023-09-19T18:06:21;5.40;;;2.80;;
32523;SDS011;18965;52.242;20.886;2023-09-19T18:08:48;9.05;;;3.03;;
32523;SDS011;18965;52.242;20.886;2023-09-19T18:11:15;4.25;;;2.40;;
32523;SDS011;18965;52.242;20.886;2023-09-19T18:13:42;3.83;;;2.45;;
32523;SDS011;18965;52.242;20.886;2023-09-19T18:16:12;4.53;;;2.70;;
32523;SDS011;18965;52.242;20.886;2023-09-19T18:18:38;4.25;;;2.80;;
32523;SDS011;18965;52.242;20.886;2023-09-19T18:21:06;4.45;;;2.60;;
32523;SDS011;18965;52.242;20.886;2023-09-19T18:23:36;6.03;;;2.67;;
32523;SDS011;18965;52.242;20.886;2023-09-19T18:26:19;4.68;;;3.08;;
32523;SDS011;18965;52.242;20.886;2023-09-19T18:28:44;4.70;;;2.95;;
32523;SDS011;18965;52.242;20.886;2023-09-19T18:31:10;4.43;;;3.00;;
32523;SDS011;18965;52.242;20.886;2023-09-19T18:33:38;4.47;;;2.90;;
32523;SDS011;18965;52.242;20.886;2023-09-19T18:36:15;3.78;;;2.80;;
32523;SDS011;18965;52.242;20.886;2023-09-19T18:38:45;5.88;;;2.88;;
32523;SDS011;18965;52.242;20.886;2023-09-19T18:41:13;5.22;;;2.70;;
32523;SDS011;18965;52.242;20.886;2023-09-19T18:43:39;4.10;;;2.63;;
32523;SDS011;18965;52.242;20.886;2023-09-19T18:46:06;7.93;;;2.83;;
32523;SDS011;18965;52.242;20.886;2023-09-19T18:48:41;4.32;;;2.45;;
32523;SDS011;18965;52.242;20.886;2023-09-19T18:51:22;6.70;;;2.55;;
32523;SDS011;18965;52.242;20.886;2023-09-19T18:53:49;7.10;;;2.85;;
32523;SDS011;18965;52.242;20.886;2023-09-19T18:56:15;5.60;;;3.10;;
32523;SDS011;18965;52.242;20.886;2023-09-19T18:58:43;4.80;;;2.95;;
32523;SDS011;18965;52.242;20.886;2023-09-19T19:01:15;2.88;;;2.50;;
32523;SDS011;18965;52.242;20.886;2023-09-19T19:03:41;5.53;;;2.63;;
32523;SDS011;18965;52.242;20.886;2023-09-19T19:06:12;4.75;;;2.92;;
32523;SDS011;18965;52.242;20.886;2023-09-19T19:08:45;4.90;;;2.67;;
32523;SDS011;18965;52.242;20.886;2023-09-19T19:11:14;3.47;;;2.70;;
32523;SDS011;18965;52.242;20.886;2023-09-19T19:13:46;5.03;;;2.75;;
32523;SDS011;18965;52.242;20.886;2023-09-19T19:16:13;4.90;;;3.30;;
32523;SDS011;18965;52.242;20.886;2023-09-19T19:18:40;6.30;;;2.72;;
32523;SDS011;18965;52.242;20.886;2023-09-19T19:21:09;5.88;;;3.08;;
32523;SDS011;18965;52.242;20.886;2023-09-19T19:23:37;6.70;;;2.92;;
32523;SDS011;18965;52.242;20.886;2023-09-19T19:26:03;4.82;;;3.30;;
32523;SDS011;18965;52.242;20.886;2023-09-19T19:28:31;5.72;;;3.30;;
32523;SDS011;18965;52.242;20.886;2023-09-19T19:30:57;4.95;;;3.33;;
32523;SDS011;18965;52.242;20.886;2023-09-19T19:33:24;5.50;;;2.97;;
32523;SDS011;18965;52.242;20.886;2023-09-19T19:35:51;6.43;;;3.20;;
32523;SDS011;18965;52.242;20.886;2023-09-19T19:38:18;4.20;;;3.05;;
32523;SDS011;18965;52.242;20.886;2023-09-19T19:43:24;8.35;;;3.45;;
32523;SDS011;18965;52.242;20.886;2023-09-19T19:45:58;7.15;;;3.17;;
32523;SDS011;18965;52.242;20.886;2023-09-19T19:48:25;12.77;;;4.38;;
32523;SDS011;18965;52.242;20.886;2023-09-19T19:50:51;5.82;;;3.50;;
32523;SDS011;18965;52.242;20.886;2023-09-19T19:53:20;5.50;;;2.70;;
32523;SDS011;18965;52.242;20.886;2023-09-19T19:55:58;7.15;;;3.58;;
32523;SDS011;18965;52.242;20.886;2023-09-19T19:58:32;7.20;;;3.45;;
32523;SDS011;18965;52.242;20.886;2023-09-19T20:00:59;7.80;;;3.85;;
32523;SDS011;18965;52.242;20.886;2023-09-19T20:03:26;5.10;;;3.72;;
32523;SDS011;18965;52.242;20.886;2023-09-19T20:05:59;10.82;;;4.13;;
32523;SDS011;18965;52.242;20.886;2023-09-19T20:08:29;5.55;;;3.83;;